createdAt,value
2024-04-30T00:01:32.310Z,9.61
2024-04-30T00:04:01.482Z,10.01
2024-04-30T00:06:35.298Z,10.27
2024-04-30T00:09:04.735Z,10.31
2024-04-30T00:11:48.143Z,10.07
2024-04-30T00:14:18.154Z,10.08
2024-04-30T00:16:49.999Z,10.08
2024-04-30T00:19:18.708Z,9.91
2024-04-30T00:21:50.568Z,9.60
2024-04-30T00:24:19.090Z,9.48
2024-04-30T00:26:50.611Z,9.91
2024-04-30T00:29:19.075Z,9.70
2024-04-30T00:31:51.598Z,9.89
2024-04-30T00:34:20.080Z,9.75
2024-04-30T00:36:51.559Z,9.79
2024-04-30T00:39:21.663Z,9.96
2024-04-30T00:41:55.671Z,9.71
2024-04-30T00:44:26.025Z,9.82
2024-04-30T00:46:58.900Z,9.47
2024-04-30T00:49:27.622Z,9.61
2024-04-30T00:52:00.361Z,9.38
2024-04-30T00:54:29.500Z,9.81
2024-04-30T00:57:01.355Z,10.03
2024-04-30T00:59:30.116Z,10.14
2024-04-30T01:02:02.191Z,10.11
2024-04-30T01:04:34.262Z,9.96
2024-04-30T01:07:07.932Z,9.86
2024-04-30T01:09:37.209Z,9.31
2024-04-30T01:12:09.057Z,9.80
2024-04-30T01:14:37.423Z,9.80
2024-04-30T01:17:09.217Z,9.88
2024-04-30T01:19:38.848Z,9.82
2024-04-30T01:22:11.339Z,9.65
2024-04-30T01:24:40.289Z,9.00
2024-04-30T01:27:11.525Z,9.72
2024-04-30T01:29:40.409Z,9.70
2024-04-30T01:32:12.644Z,9.72
2024-04-30T01:34:41.802Z,9.83
2024-04-30T01:37:13.463Z,9.88
2024-04-30T01:39:42.276Z,9.81
2024-04-30T01:42:13.914Z,9.84
2024-04-30T01:44:42.874Z,9.83
2024-04-30T01:47:14.567Z,9.78
2024-04-30T01:49:44.360Z,9.90
2024-04-30T01:52:16.263Z,10.01
2024-04-30T01:54:44.697Z,10.00
2024-04-30T01:57:18.396Z,10.01
2024-04-30T01:59:46.659Z,9.69
2024-04-30T02:02:18.556Z,9.91
2024-04-30T02:04:52.867Z,9.87
2024-04-30T02:07:25.407Z,9.95
2024-04-30T02:09:54.140Z,9.77
2024-04-30T02:12:25.861Z,9.53
2024-04-30T02:14:54.326Z,9.76
2024-04-30T02:17:27.989Z,9.83
2024-04-30T02:19:56.712Z,9.88
2024-04-30T02:22:30.372Z,9.79
2024-04-30T02:25:01.832Z,9.71
2024-04-30T02:27:34.546Z,9.02
2024-04-30T02:30:03.012Z,9.62
2024-04-30T02:32:50.804Z,9.72
2024-04-30T02:35:22.068Z,9.52
2024-04-30T02:37:53.526Z,9.67
2024-04-30T02:40:24.582Z,9.63
2024-04-30T02:42:55.656Z,9.42
2024-04-30T02:45:26.699Z,9.45
2024-04-30T02:47:55.775Z,9.47
2024-04-30T02:50:26.869Z,9.48
2024-04-30T02:52:55.633Z,9.31
2024-04-30T02:55:26.780Z,9.08
2024-04-30T02:57:55.580Z,9.25
2024-04-30T03:00:27.057Z,9.31
2024-04-30T03:02:56.143Z,9.34
2024-04-30T03:05:27.327Z,9.31
2024-04-30T03:07:56.110Z,9.32
2024-04-30T03:10:27.084Z,9.40
2024-04-30T03:12:57.041Z,9.33
2024-04-30T03:15:27.753Z,9.30
2024-04-30T03:17:56.537Z,9.38
2024-04-30T03:20:28.601Z,9.42
2024-04-30T03:22:57.960Z,9.31
2024-04-30T03:25:28.974Z,9.27
2024-04-30T03:28:01.386Z,9.44
2024-04-30T03:30:34.009Z,9.39
2024-04-30T03:33:05.476Z,9.07
2024-04-30T03:35:37.062Z,9.82
2024-04-30T03:38:09.163Z,9.86
2024-04-30T03:40:40.944Z,9.50
2024-04-30T03:43:13.287Z,9.93
2024-04-30T03:45:44.498Z,9.97
2024-04-30T03:48:16.732Z,10.00
2024-04-30T03:50:51.698Z,10.17
2024-04-30T03:53:20.586Z,10.24
2024-04-30T03:55:53.642Z,10.54
2024-04-30T03:58:23.162Z,10.60
2024-04-30T04:00:54.939Z,10.58
2024-04-30T04:03:24.015Z,10.98
2024-04-30T04:05:55.136Z,10.97
2024-04-30T04:08:23.928Z,11.21
2024-04-30T04:11:07.163Z,11.28
2024-04-30T04:13:58.689Z,11.42
2024-04-30T04:16:29.690Z,11.52
2024-04-30T04:19:01.206Z,11.73
2024-04-30T04:21:32.517Z,11.74
2024-04-30T04:24:04.078Z,11.87
2024-04-30T04:26:32.521Z,11.91
2024-04-30T04:29:03.946Z,12.05
2024-04-30T04:31:32.626Z,12.18
2024-04-30T04:34:04.885Z,12.33
2024-04-30T04:36:33.208Z,12.30
2024-04-30T04:39:04.939Z,12.55
2024-04-30T04:41:33.326Z,12.57
2024-04-30T04:44:04.817Z,12.87
2024-04-30T04:46:33.245Z,13.00
2024-04-30T04:49:07.897Z,13.26
2024-04-30T04:51:36.573Z,14.09
2024-04-30T04:54:08.296Z,14.98
2024-04-30T04:56:36.769Z,15.78
2024-04-30T04:59:08.240Z,15.87
2024-04-30T05:01:36.650Z,16.04
2024-04-30T05:04:08.719Z,16.14
2024-04-30T05:06:41.717Z,16.03
2024-04-30T05:09:13.244Z,16.29
2024-04-30T05:11:41.615Z,16.35
2024-04-30T05:14:13.322Z,16.37
2024-04-30T05:16:41.791Z,16.26
2024-04-30T05:19:13.280Z,16.41
2024-04-30T05:21:41.782Z,17.04
2024-04-30T05:24:13.184Z,16.94
2024-04-30T05:26:42.010Z,16.89
2024-04-30T05:29:13.560Z,17.29
2024-04-30T05:31:42.154Z,17.72
2024-04-30T05:34:13.418Z,17.10
2024-04-30T05:36:41.845Z,18.01
2024-04-30T05:39:13.076Z,18.43
2024-04-30T05:41:41.343Z,18.97
2024-04-30T05:44:12.961Z,18.71
2024-04-30T05:46:41.447Z,18.76
2024-04-30T05:49:13.281Z,18.93
2024-04-30T05:51:43.132Z,19.28
2024-04-30T05:54:14.967Z,20.25
2024-04-30T05:56:43.365Z,20.99
2024-04-30T05:59:14.755Z,21.11
2024-04-30T06:01:43.100Z,21.40
2024-04-30T06:04:14.588Z,21.99
2024-04-30T06:06:42.913Z,21.95
2024-04-30T06:09:14.527Z,22.68
2024-04-30T06:11:43.214Z,22.76
2024-04-30T06:14:14.765Z,22.90
2024-04-30T06:16:43.103Z,23.12
2024-04-30T06:19:14.933Z,23.98
2024-04-30T06:21:45.257Z,24.39
2024-04-30T06:24:16.971Z,25.07
2024-04-30T06:26:45.558Z,24.86
2024-04-30T06:29:17.501Z,25.32
2024-04-30T06:31:45.914Z,25.37
2024-04-30T06:34:17.572Z,25.89
2024-04-30T06:36:45.994Z,26.10
2024-04-30T06:39:18.811Z,26.10
2024-04-30T06:41:47.193Z,26.77
2024-04-30T06:44:18.637Z,26.27
2024-04-30T06:46:47.092Z,26.88
2024-04-30T06:49:18.699Z,26.89
2024-04-30T06:51:47.045Z,26.82
2024-04-30T06:54:18.598Z,26.98
2024-04-30T06:56:47.030Z,27.95
2024-04-30T06:59:18.949Z,28.08
2024-04-30T07:01:47.310Z,26.53
2024-04-30T07:04:19.131Z,26.84
2024-04-30T07:06:47.611Z,26.52
2024-04-30T07:09:19.619Z,25.93
2024-04-30T07:11:48.954Z,26.56
2024-04-30T07:14:21.807Z,26.66
2024-04-30T07:16:56.806Z,27.05
2024-04-30T07:19:34.683Z,27.81
2024-04-30T07:22:03.605Z,28.01
2024-04-30T07:24:35.423Z,26.94
2024-04-30T07:27:04.086Z,27.12
2024-04-30T07:29:35.906Z,27.16
2024-04-30T07:32:05.004Z,27.78
2024-04-30T07:34:36.973Z,28.46
2024-04-30T07:37:07.505Z,28.50
2024-04-30T07:39:39.151Z,28.94
2024-04-30T07:42:09.451Z,28.76
2024-04-30T07:44:41.434Z,28.43
2024-04-30T07:47:13.031Z,27.18
2024-04-30T07:49:44.616Z,27.57
2024-04-30T07:52:15.079Z,27.95
2024-04-30T07:54:47.904Z,28.57
2024-04-30T07:57:16.981Z,27.54
2024-04-30T07:59:52.288Z,26.00
2024-04-30T08:02:20.739Z,25.19
2024-04-30T08:04:52.500Z,25.44
2024-04-30T08:07:21.022Z,26.16
2024-04-30T08:09:52.598Z,27.11
2024-04-30T08:12:25.631Z,26.59
2024-04-30T08:15:04.492Z,26.00
2024-04-30T08:17:34.620Z,26.60
2024-04-30T08:20:06.907Z,26.90
2024-04-30T08:22:35.531Z,27.05
2024-04-30T08:25:07.279Z,26.45
2024-04-30T08:27:35.699Z,26.57
2024-04-30T08:30:08.275Z,26.99
2024-04-30T08:32:36.908Z,27.20
2024-04-30T08:35:08.821Z,27.43
2024-04-30T08:37:43.389Z,27.80
2024-04-30T08:40:19.587Z,26.77
2024-04-30T08:42:50.648Z,26.17
2024-04-30T08:45:22.988Z,25.20
2024-04-30T08:47:52.903Z,24.71
2024-04-30T08:50:27.517Z,25.99
2024-04-30T08:52:58.151Z,26.47
2024-04-30T08:55:31.206Z,27.07
2024-04-30T08:57:59.890Z,25.91
2024-04-30T09:00:32.284Z,26.09
2024-04-30T09:03:04.996Z,26.58
2024-04-30T09:05:37.177Z,27.08
2024-04-30T09:08:06.215Z,27.91
2024-04-30T09:10:38.547Z,28.38
2024-04-30T09:13:07.255Z,27.89
2024-04-30T09:15:38.840Z,28.28
2024-04-30T09:18:11.164Z,29.02
2024-04-30T09:20:52.107Z,29.70
2024-04-30T09:23:50.008Z,30.21
2024-04-30T09:26:19.479Z,29.90
2024-04-30T09:28:59.949Z,28.94
2024-04-30T09:31:40.131Z,27.74
2024-04-30T09:34:11.910Z,28.90
2024-04-30T09:36:41.074Z,29.46
2024-04-30T09:39:14.224Z,26.92
2024-04-30T09:41:46.066Z,27.01
2024-04-30T09:44:17.998Z,27.62
2024-04-30T09:46:52.210Z,28.80
2024-04-30T09:49:24.669Z,28.76
2024-04-30T09:51:56.861Z,28.93
2024-04-30T09:54:29.783Z,29.08
2024-04-30T09:57:02.636Z,28.93
2024-04-30T09:59:34.064Z,28.78
2024-04-30T10:02:09.554Z,29.25
2024-04-30T10:04:41.651Z,28.60
2024-04-30T10:07:11.782Z,28.47
2024-04-30T10:09:42.728Z,28.29
2024-04-30T10:12:28.808Z,27.09
2024-04-30T10:15:15.104Z,27.28
2024-04-30T10:17:44.551Z,26.99
2024-04-30T10:20:18.574Z,26.25
2024-04-30T10:22:47.434Z,25.39
2024-04-30T10:25:26.377Z,24.75
2024-04-30T10:28:09.693Z,24.12
2024-04-30T10:30:40.846Z,24.52
2024-04-30T10:33:09.830Z,24.47
2024-04-30T10:35:47.518Z,23.86
2024-04-30T10:38:16.445Z,24.27
2024-04-30T10:40:47.587Z,24.37
2024-04-30T10:43:28.294Z,25.18
2024-04-30T10:45:56.769Z,25.56
2024-04-30T10:48:28.490Z,26.19
2024-04-30T10:51:02.911Z,26.32
2024-04-30T10:53:34.707Z,26.41
2024-04-30T10:56:03.252Z,26.80
2024-04-30T10:58:34.940Z,27.22
2024-04-30T11:01:03.396Z,27.36
2024-04-30T11:03:35.228Z,27.33
2024-04-30T11:06:03.703Z,27.67
2024-04-30T11:08:35.448Z,27.90
2024-04-30T11:11:20.509Z,27.78
2024-04-30T11:13:51.762Z,27.92
2024-04-30T11:16:22.999Z,28.30
2024-04-30T11:18:52.002Z,28.25
2024-04-30T11:21:26.301Z,27.79
2024-04-30T11:23:54.942Z,27.45
2024-04-30T11:26:25.967Z,27.62
2024-04-30T11:29:08.980Z,27.72
2024-04-30T11:31:46.817Z,27.34
2024-04-30T11:34:15.969Z,26.87
2024-04-30T11:36:47.399Z,27.63
2024-04-30T11:39:17.141Z,27.90
2024-04-30T11:41:52.349Z,27.63
2024-04-30T11:44:30.800Z,27.28
2024-04-30T11:47:05.892Z,26.67
2024-04-30T11:49:38.621Z,26.90
2024-04-30T11:52:07.201Z,26.42
2024-04-30T11:54:39.189Z,26.44
2024-04-30T11:57:07.646Z,26.33
2024-04-30T11:59:41.884Z,25.79
2024-04-30T12:02:10.577Z,25.30
2024-04-30T12:04:42.418Z,25.58
2024-04-30T12:07:10.889Z,26.08
2024-04-30T12:09:45.181Z,25.68
2024-04-30T12:12:13.640Z,24.57
2024-04-30T12:14:45.062Z,24.45
2024-04-30T12:17:13.578Z,24.81
2024-04-30T12:19:45.510Z,25.11
2024-04-30T12:22:13.978Z,25.75
2024-04-30T12:24:45.587Z,25.99
2024-04-30T12:27:14.196Z,25.19
2024-04-30T12:29:45.854Z,24.94
2024-04-30T12:32:14.346Z,24.90
2024-04-30T12:34:46.434Z,25.84
2024-04-30T12:37:14.882Z,26.14
2024-04-30T12:39:46.753Z,25.64
2024-04-30T12:42:15.421Z,26.17
2024-04-30T12:44:50.917Z,26.08
2024-04-30T12:47:19.580Z,26.40
2024-04-30T12:49:51.187Z,26.47
2024-04-30T12:52:20.042Z,25.79
2024-04-30T12:54:51.692Z,25.46
2024-04-30T12:57:20.107Z,25.74
2024-04-30T12:59:51.579Z,24.71
2024-04-30T13:02:20.008Z,24.62
2024-04-30T13:04:52.033Z,24.95
2024-04-30T13:07:20.658Z,25.61
2024-04-30T13:09:52.220Z,25.84
2024-04-30T13:12:20.941Z,25.77
2024-04-30T13:14:52.527Z,25.35
2024-04-30T13:17:20.889Z,26.09
2024-04-30T13:19:52.128Z,26.63
2024-04-30T13:22:20.557Z,26.86
2024-04-30T13:24:52.064Z,27.24
2024-04-30T13:27:20.374Z,27.22
2024-04-30T13:29:51.919Z,26.95
2024-04-30T13:32:20.675Z,26.87
2024-04-30T13:34:52.558Z,26.94
2024-04-30T13:37:21.088Z,27.30
2024-04-30T13:39:52.687Z,27.50
2024-04-30T13:42:21.589Z,27.76
2024-04-30T13:44:53.276Z,27.53
2024-04-30T13:47:22.155Z,27.19
2024-04-30T13:49:53.741Z,27.53
2024-04-30T13:52:22.758Z,27.52
2024-04-30T13:54:53.773Z,27.32
2024-04-30T13:57:22.743Z,27.01
2024-04-30T13:59:54.039Z,26.08
2024-04-30T14:02:23.092Z,25.71
2024-04-30T14:04:53.977Z,25.13
2024-04-30T14:07:22.906Z,24.80
2024-04-30T14:09:54.235Z,24.68
2024-04-30T14:12:23.157Z,24.84
2024-04-30T14:14:54.478Z,24.22
2024-04-30T14:17:23.646Z,24.37
2024-04-30T14:19:55.098Z,24.70
2024-04-30T14:22:24.014Z,24.32
2024-04-30T14:24:55.178Z,25.03
2024-04-30T14:27:24.082Z,24.64
2024-04-30T14:29:55.348Z,23.53
2024-04-30T14:32:26.137Z,24.02
2024-04-30T14:34:57.445Z,23.67
2024-04-30T14:37:26.535Z,23.63
2024-04-30T14:39:57.707Z,23.70
2024-04-30T14:42:29.593Z,23.89
2024-04-30T14:45:06.673Z,23.93
2024-04-30T14:47:37.015Z,23.59
2024-04-30T14:50:08.502Z,23.33
2024-04-30T14:52:38.327Z,23.65
2024-04-30T14:55:09.511Z,23.47
2024-04-30T14:57:38.457Z,23.44
2024-04-30T15:00:10.001Z,23.66
2024-04-30T15:02:38.883Z,23.91
2024-04-30T15:05:10.424Z,24.09
2024-04-30T15:07:39.473Z,24.50
2024-04-30T15:10:11.881Z,24.90
2024-04-30T15:12:40.741Z,24.78
2024-04-30T15:15:12.302Z,24.11
2024-04-30T15:17:41.356Z,23.98
2024-04-30T15:20:13.184Z,23.83
2024-04-30T15:22:42.160Z,23.71
2024-04-30T15:25:13.512Z,23.89
2024-04-30T15:27:42.374Z,24.25
2024-04-30T15:30:15.510Z,24.46
2024-04-30T15:32:46.094Z,24.70
2024-04-30T15:35:20.346Z,24.70
2024-04-30T15:37:50.096Z,24.71
2024-04-30T15:40:21.422Z,24.44
2024-04-30T15:42:50.400Z,24.33
2024-04-30T15:45:21.708Z,24.05
2024-04-30T15:47:50.820Z,24.14
2024-04-30T15:50:22.084Z,24.26
2024-04-30T15:52:51.162Z,24.13
2024-04-30T15:55:22.440Z,24.35
2024-04-30T15:57:51.719Z,24.56
2024-04-30T16:00:22.914Z,24.51
2024-04-30T16:02:52.082Z,24.78
2024-04-30T16:05:23.396Z,25.09
2024-04-30T16:07:53.225Z,24.70
2024-04-30T16:10:24.595Z,24.32
2024-04-30T16:12:53.613Z,24.06
2024-04-30T16:15:24.999Z,24.43
2024-04-30T16:17:53.950Z,24.46
2024-04-30T16:20:24.880Z,24.85
2024-04-30T16:22:53.756Z,24.76
2024-04-30T16:25:24.878Z,24.88
2024-04-30T16:27:53.912Z,24.72
2024-04-30T16:30:25.093Z,24.59
2024-04-30T16:32:54.260Z,24.43
2024-04-30T16:35:25.810Z,24.26
2024-04-30T16:37:54.761Z,23.76
2024-04-30T16:40:25.795Z,23.85
2024-04-30T16:42:55.144Z,23.83
2024-04-30T16:45:26.628Z,23.49
2024-04-30T16:47:55.751Z,23.16
2024-04-30T16:50:26.938Z,22.92
2024-04-30T16:52:59.278Z,22.84
2024-04-30T16:55:31.446Z,22.44
2024-04-30T16:58:03.624Z,22.68
2024-04-30T17:00:35.187Z,22.82
2024-04-30T17:03:04.608Z,22.87
2024-04-30T17:05:35.818Z,22.72
2024-04-30T17:08:07.941Z,22.60
2024-04-30T17:10:36.344Z,22.72
2024-04-30T17:13:07.694Z,22.44
2024-04-30T17:15:36.125Z,22.10
2024-04-30T17:18:08.572Z,21.91
2024-04-30T17:20:37.024Z,21.74
2024-04-30T17:23:08.369Z,21.73
2024-04-30T17:25:36.734Z,21.54
2024-04-30T17:28:08.766Z,21.45
2024-04-30T17:30:37.232Z,21.27
2024-04-30T17:33:09.065Z,21.20
2024-04-30T17:35:37.581Z,21.08
2024-04-30T17:38:09.306Z,20.99
2024-04-30T17:40:37.749Z,20.79
2024-04-30T17:43:10.211Z,20.76
2024-04-30T17:45:38.855Z,20.24
2024-04-30T17:48:11.418Z,20.52
2024-04-30T17:50:39.928Z,20.37
2024-04-30T17:53:11.222Z,20.27
2024-04-30T17:55:42.189Z,19.81
2024-04-30T17:58:11.613Z,19.67
2024-04-30T18:00:42.441Z,19.60
2024-04-30T18:03:11.955Z,19.26
2024-04-30T18:05:43.130Z,19.09
2024-04-30T18:08:11.990Z,18.88
2024-04-30T18:10:49.530Z,18.72
2024-04-30T18:13:25.559Z,18.50
2024-04-30T18:15:54.347Z,18.23
2024-04-30T18:18:25.920Z,18.36
2024-04-30T18:20:54.757Z,18.28
2024-04-30T18:23:26.593Z,18.12
2024-04-30T18:25:55.124Z,17.97
2024-04-30T18:28:27.045Z,17.78
2024-04-30T18:30:58.173Z,17.96
2024-04-30T18:33:27.118Z,18.14
2024-04-30T18:35:58.356Z,18.15
2024-04-30T18:38:27.247Z,17.90
2024-04-30T18:41:00.081Z,17.63
2024-04-30T18:43:34.258Z,17.66
2024-04-30T18:46:05.801Z,17.28
2024-04-30T18:48:35.427Z,16.58
2024-04-30T18:51:06.732Z,17.43
2024-04-30T18:53:38.453Z,17.43
2024-04-30T18:56:10.406Z,17.33
2024-04-30T18:58:39.538Z,17.33
2024-04-30T19:01:11.459Z,17.13
2024-04-30T19:03:40.996Z,17.06
2024-04-30T19:06:14.490Z,16.81
2024-04-30T19:08:48.274Z,17.03
2024-04-30T19:11:20.568Z,16.28
2024-04-30T19:13:52.992Z,16.53
2024-04-30T19:16:24.875Z,15.99
2024-04-30T19:18:54.379Z,16.44
2024-04-30T19:21:28.675Z,16.54
2024-04-30T19:23:57.646Z,16.38
2024-04-30T19:26:28.996Z,16.35
2024-04-30T19:29:09.818Z,16.19
2024-04-30T19:32:11.525Z,16.42
2024-04-30T19:34:44.477Z,16.46
2024-04-30T19:37:13.670Z,16.45
2024-04-30T19:39:46.439Z,16.39
2024-04-30T19:42:15.294Z,15.54
2024-04-30T19:44:53.654Z,14.41
2024-04-30T19:47:22.426Z,14.69
2024-04-30T19:50:41.679Z,16.09
2024-04-30T19:53:14.584Z,16.00
2024-04-30T19:55:47.883Z,16.03
2024-04-30T19:58:17.306Z,15.80
2024-04-30T20:00:50.697Z,15.63
2024-04-30T20:03:19.811Z,14.76
2024-04-30T20:05:52.085Z,15.37
2024-04-30T20:08:20.911Z,15.60
2024-04-30T20:10:53.488Z,15.93
2024-04-30T20:13:24.579Z,15.74
2024-04-30T20:15:56.306Z,15.37
2024-04-30T20:18:25.136Z,15.55
2024-04-30T20:20:56.805Z,15.55
2024-04-30T20:23:28.130Z,15.23
2024-04-30T20:26:00.177Z,15.65
2024-04-30T20:28:28.795Z,15.33
2024-04-30T20:31:02.794Z,15.65
2024-04-30T20:33:34.480Z,15.75
2024-04-30T20:36:03.684Z,15.43
2024-04-30T20:38:36.924Z,15.46
2024-04-30T20:41:13.417Z,15.05
2024-04-30T20:43:42.324Z,15.50
2024-04-30T20:46:14.392Z,15.23
2024-04-30T20:48:45.757Z,15.43
2024-04-30T20:51:18.932Z,15.37
2024-04-30T20:53:47.528Z,15.47
2024-04-30T20:56:19.179Z,15.41
2024-04-30T20:58:47.783Z,15.31
2024-04-30T21:01:20.525Z,15.00
2024-04-30T21:03:49.544Z,15.41
2024-04-30T21:06:21.627Z,15.45
2024-04-30T21:08:50.256Z,15.60
2024-04-30T21:11:22.526Z,15.19
2024-04-30T21:13:52.283Z,15.24
2024-04-30T21:16:25.247Z,15.09
2024-04-30T21:18:54.222Z,15.15
2024-04-30T21:21:26.881Z,15.47
2024-04-30T21:23:55.483Z,15.31
2024-04-30T21:26:27.678Z,15.39
2024-04-30T21:28:56.172Z,15.50
2024-04-30T21:31:28.250Z,15.30
2024-04-30T21:33:56.892Z,15.43
2024-04-30T21:36:29.319Z,15.14
2024-04-30T21:38:57.929Z,14.76
2024-04-30T21:41:30.270Z,15.46
2024-04-30T21:43:58.800Z,15.47
2024-04-30T21:46:30.509Z,15.37
2024-04-30T21:49:01.994Z,14.82
2024-04-30T21:51:33.782Z,14.90
2024-04-30T21:54:02.423Z,15.26
2024-04-30T21:56:34.094Z,15.43
2024-04-30T21:59:03.185Z,15.26
2024-04-30T22:01:36.550Z,15.59
2024-04-30T22:04:05.193Z,15.72
2024-04-30T22:06:36.888Z,15.83
2024-04-30T22:09:05.268Z,15.83
2024-04-30T22:11:37.988Z,16.04
2024-04-30T22:14:06.767Z,15.85
2024-04-30T22:16:39.007Z,15.86
2024-04-30T22:19:07.764Z,15.59
2024-04-30T22:21:39.884Z,15.53
2024-04-30T22:24:08.661Z,15.38
2024-04-30T22:26:40.362Z,15.52
2024-04-30T22:29:08.787Z,15.47
2024-04-30T22:31:40.362Z,15.47
2024-04-30T22:34:09.150Z,15.18
2024-04-30T22:36:41.683Z,15.05
2024-04-30T22:39:11.090Z,14.84
2024-04-30T22:41:43.209Z,15.09
2024-04-30T22:44:14.303Z,15.22
2024-04-30T22:46:43.887Z,14.81
2024-04-30T22:49:15.581Z,14.94
2024-04-30T22:51:44.802Z,14.83
2024-04-30T22:54:16.283Z,14.38
2024-04-30T22:56:46.066Z,14.82
2024-04-30T22:59:17.423Z,14.66
2024-04-30T23:01:48.394Z,14.69
2024-04-30T23:04:21.872Z,14.29
2024-04-30T23:06:51.066Z,14.50
2024-04-30T23:09:22.781Z,14.14
2024-04-30T23:11:52.014Z,14.26
2024-04-30T23:14:23.209Z,14.45
2024-04-30T23:16:52.747Z,13.69
2024-04-30T23:19:23.914Z,14.08
2024-04-30T23:21:53.266Z,14.34
2024-04-30T23:24:24.564Z,14.23
2024-04-30T23:26:53.937Z,14.28
2024-04-30T23:29:27.725Z,14.28
2024-04-30T23:31:57.348Z,14.50
2024-04-30T23:34:29.090Z,14.52
2024-04-30T23:37:00.312Z,14.49
2024-04-30T23:39:31.421Z,13.95
2024-04-30T23:42:03.282Z,14.23
2024-04-30T23:44:34.680Z,14.17
2024-04-30T23:47:05.150Z,13.95
2024-04-30T23:49:36.412Z,14.04
2024-04-30T23:52:07.432Z,13.99
2024-04-30T23:54:39.053Z,13.91
2024-04-30T23:57:08.038Z,13.76
2024-04-30T23:59:42.132Z,13.91
